sensor_id;sensor_type;location;lat;lon;timestamp;P1;durP1;ratioP1;P2;durP2;ratioP2
33206;SDS011;19565;46.602;11.534;2023-12-20T00:01:22;2.93;;;2.63;;
33206;SDS011;19565;46.602;11.534;2023-12-20T00:03:52;0.87;;;0.87;;
33206;SDS011;19565;46.602;11.534;2023-12-20T00:06:20;1.00;;;1.00;;
33206;SDS011;19565;46.602;11.534;2023-12-20T00:08:48;1.87;;;1.77;;
33206;SDS011;19565;46.602;11.534;2023-12-20T00:11:16;1.47;;;1.37;;
33206;SDS011;19565;46.602;11.534;2023-12-20T00:13:44;1.60;;;1.50;;
33206;SDS011;19565;46.602;11.534;2023-12-20T00:16:17;1.37;;;1.27;;
33206;SDS011;19565;46.602;11.534;2023-12-20T00:18:45;1.40;;;1.40;;
33206;SDS011;19565;46.602;11.534;2023-12-20T00:21:14;1.27;;;1.27;;
33206;SDS011;19565;46.602;11.534;2023-12-20T00:23:42;4.00;;;3.80;;
33206;SDS011;19565;46.602;11.534;2023-12-20T00:26:10;4.43;;;4.23;;
33206;SDS011;19565;46.602;11.534;2023-12-20T00:28:39;4.80;;;4.50;;
33206;SDS011;19565;46.602;11.534;2023-12-20T00:31:06;5.80;;;5.50;;
33206;SDS011;19565;46.602;11.534;2023-12-20T00:33:35;5.77;;;5.47;;
33206;SDS011;19565;46.602;11.534;2023-12-20T00:36:03;6.17;;;5.77;;
33206;SDS011;19565;46.602;11.534;2023-12-20T00:38:33;7.83;;;7.33;;
33206;SDS011;19565;46.602;11.534;2023-12-20T00:41:01;6.87;;;6.47;;
33206;SDS011;19565;46.602;11.534;2023-12-20T00:43:30;7.80;;;7.20;;
33206;SDS011;19565;46.602;11.534;2023-12-20T00:45:57;6.93;;;6.53;;
33206;SDS011;19565;46.602;11.534;2023-12-20T00:48:26;8.03;;;7.33;;
33206;SDS011;19565;46.602;11.534;2023-12-20T00:50:57;6.97;;;6.57;;
33206;SDS011;19565;46.602;11.534;2023-12-20T00:53:25;1.60;;;1.50;;
33206;SDS011;19565;46.602;11.534;2023-12-20T00:55:54;1.53;;;1.50;;
33206;SDS011;19565;46.602;11.534;2023-12-20T00:58:22;2.27;;;2.13;;
33206;SDS011;19565;46.602;11.534;2023-12-20T01:00:50;1.40;;;1.37;;
33206;SDS011;19565;46.602;11.534;2023-12-20T01:03:19;1.97;;;1.87;;
33206;SDS011;19565;46.602;11.534;2023-12-20T01:05:47;2.90;;;2.60;;
33206;SDS011;19565;46.602;11.534;2023-12-20T01:08:15;1.73;;;1.63;;
33206;SDS011;19565;46.602;11.534;2023-12-20T01:10:43;1.80;;;1.70;;
33206;SDS011;19565;46.602;11.534;2023-12-20T01:13:12;1.83;;;1.73;;
33206;SDS011;19565;46.602;11.534;2023-12-20T01:15:40;1.10;;;1.10;;
33206;SDS011;19565;46.602;11.534;2023-12-20T01:18:08;1.57;;;1.47;;
33206;SDS011;19565;46.602;11.534;2023-12-20T01:20:36;1.20;;;1.20;;
33206;SDS011;19565;46.602;11.534;2023-12-20T01:23:04;1.57;;;1.47;;
33206;SDS011;19565;46.602;11.534;2023-12-20T01:25:32;1.20;;;1.20;;
33206;SDS011;19565;46.602;11.534;2023-12-20T01:28:00;2.27;;;2.07;;
33206;SDS011;19565;46.602;11.534;2023-12-20T01:30:30;1.50;;;1.47;;
33206;SDS011;19565;46.602;11.534;2023-12-20T01:32:59;2.77;;;1.43;;
33206;SDS011;19565;46.602;11.534;2023-12-20T01:35:28;1.50;;;1.43;;
33206;SDS011;19565;46.602;11.534;2023-12-20T01:37:56;1.27;;;1.27;;
33206;SDS011;19565;46.602;11.534;2023-12-20T01:40:24;1.07;;;1.07;;
33206;SDS011;19565;46.602;11.534;2023-12-20T01:42:58;2.33;;;2.13;;
33206;SDS011;19565;46.602;11.534;2023-12-20T01:45:27;1.67;;;1.57;;
33206;SDS011;19565;46.602;11.534;2023-12-20T01:47:57;1.83;;;1.73;;
33206;SDS011;19565;46.602;11.534;2023-12-20T01:50:26;2.40;;;2.20;;
33206;SDS011;19565;46.602;11.534;2023-12-20T01:52:55;1.27;;;1.27;;
33206;SDS011;19565;46.602;11.534;2023-12-20T01:55:25;1.13;;;1.13;;
33206;SDS011;19565;46.602;11.534;2023-12-20T01:57:54;2.17;;;1.77;;
33206;SDS011;19565;46.602;11.534;2023-12-20T02:00:22;1.60;;;1.50;;
33206;SDS011;19565;46.602;11.534;2023-12-20T02:02:53;5.03;;;4.73;;
33206;SDS011;19565;46.602;11.534;2023-12-20T02:05:22;5.37;;;5.07;;
33206;SDS011;19565;46.602;11.534;2023-12-20T02:07:54;6.07;;;5.67;;
33206;SDS011;19565;46.602;11.534;2023-12-20T02:10:22;5.70;;;5.40;;
33206;SDS011;19565;46.602;11.534;2023-12-20T02:12:51;5.73;;;5.43;;
33206;SDS011;19565;46.602;11.534;2023-12-20T02:15:19;8.50;;;6.87;;
33206;SDS011;19565;46.602;11.534;2023-12-20T02:17:47;6.57;;;6.17;;
33206;SDS011;19565;46.602;11.534;2023-12-20T02:20:16;7.03;;;6.63;;
33206;SDS011;19565;46.602;11.534;2023-12-20T02:22:45;7.80;;;7.30;;
33206;SDS011;19565;46.602;11.534;2023-12-20T02:25:13;7.93;;;7.43;;
33206;SDS011;19565;46.602;11.534;2023-12-20T02:27:42;7.33;;;6.83;;
33206;SDS011;19565;46.602;11.534;2023-12-20T02:30:10;7.67;;;7.17;;
33206;SDS011;19565;46.602;11.534;2023-12-20T02:32:38;7.37;;;6.87;;
33206;SDS011;19565;46.602;11.534;2023-12-20T02:35:06;5.87;;;5.57;;
33206;SDS011;19565;46.602;11.534;2023-12-20T02:37:35;7.03;;;6.63;;
33206;SDS011;19565;46.602;11.534;2023-12-20T02:40:04;7.20;;;6.70;;
33206;SDS011;19565;46.602;11.534;2023-12-20T02:42:34;6.83;;;6.43;;
33206;SDS011;19565;46.602;11.534;2023-12-20T02:45:02;6.87;;;6.47;;
33206;SDS011;19565;46.602;11.534;2023-12-20T02:47:30;8.00;;;7.40;;
33206;SDS011;19565;46.602;11.534;2023-12-20T02:49:58;6.80;;;6.40;;
33206;SDS011;19565;46.602;11.534;2023-12-20T02:52:27;6.80;;;6.40;;
33206;SDS011;19565;46.602;11.534;2023-12-20T02:54:56;7.47;;;6.97;;
33206;SDS011;19565;46.602;11.534;2023-12-20T02:57:25;6.40;;;6.00;;
33206;SDS011;19565;46.602;11.534;2023-12-20T02:59:53;9.17;;;8.47;;
33206;SDS011;19565;46.602;11.534;2023-12-20T03:02:21;2.00;;;1.90;;
33206;SDS011;19565;46.602;11.534;2023-12-20T03:04:49;0.90;;;0.90;;
33206;SDS011;19565;46.602;11.534;2023-12-20T03:07:17;1.13;;;1.13;;
33206;SDS011;19565;46.602;11.534;2023-12-20T03:09:45;0.97;;;0.97;;
33206;SDS011;19565;46.602;11.534;2023-12-20T03:12:34;1.63;;;1.53;;
33206;SDS011;19565;46.602;11.534;2023-12-20T03:15:02;0.80;;;0.80;;
33206;SDS011;19565;46.602;11.534;2023-12-20T03:17:30;1.60;;;1.57;;
33206;SDS011;19565;46.602;11.534;2023-12-20T03:19:58;0.93;;;0.93;;
33206;SDS011;19565;46.602;11.534;2023-12-20T03:22:26;5.90;;;5.53;;
33206;SDS011;19565;46.602;11.534;2023-12-20T03:24:54;6.20;;;5.80;;
33206;SDS011;19565;46.602;11.534;2023-12-20T03:27:22;6.93;;;6.53;;
33206;SDS011;19565;46.602;11.534;2023-12-20T03:29:51;5.70;;;5.40;;
33206;SDS011;19565;46.602;11.534;2023-12-20T03:32:20;6.37;;;5.97;;
33206;SDS011;19565;46.602;11.534;2023-12-20T03:34:47;5.63;;;5.33;;
33206;SDS011;19565;46.602;11.534;2023-12-20T03:37:16;7.73;;;6.90;;
33206;SDS011;19565;46.602;11.534;2023-12-20T03:39:44;5.90;;;5.60;;
33206;SDS011;19565;46.602;11.534;2023-12-20T03:42:12;6.80;;;6.40;;
33206;SDS011;19565;46.602;11.534;2023-12-20T03:44:40;9.47;;;8.87;;
33206;SDS011;19565;46.602;11.534;2023-12-20T03:47:09;6.83;;;6.43;;
33206;SDS011;19565;46.602;11.534;2023-12-20T03:49:38;6.63;;;6.23;;
33206;SDS011;19565;46.602;11.534;2023-12-20T03:52:06;8.57;;;7.97;;
33206;SDS011;19565;46.602;11.534;2023-12-20T03:54:34;7.70;;;7.17;;
33206;SDS011;19565;46.602;11.534;2023-12-20T03:57:03;7.07;;;6.67;;
33206;SDS011;19565;46.602;11.534;2023-12-20T03:59:34;7.77;;;7.27;;
33206;SDS011;19565;46.602;11.534;2023-12-20T04:02:03;6.93;;;6.53;;
33206;SDS011;19565;46.602;11.534;2023-12-20T04:04:32;7.43;;;7.03;;
33206;SDS011;19565;46.602;11.534;2023-12-20T04:07:00;7.60;;;7.10;;
33206;SDS011;19565;46.602;11.534;2023-12-20T04:09:28;10.82;;;10.13;;
33206;SDS011;19565;46.602;11.534;2023-12-20T04:11:56;9.17;;;8.67;;
33206;SDS011;19565;46.602;11.534;2023-12-20T04:14:24;7.93;;;7.43;;
33206;SDS011;19565;46.602;11.534;2023-12-20T04:16:53;8.53;;;8.03;;
33206;SDS011;19565;46.602;11.534;2023-12-20T04:19:21;8.57;;;8.07;;
33206;SDS011;19565;46.602;11.534;2023-12-20T04:21:50;7.60;;;7.10;;
33206;SDS011;19565;46.602;11.534;2023-12-20T04:24:19;8.23;;;7.73;;
33206;SDS011;19565;46.602;11.534;2023-12-20T04:26:47;7.87;;;6.87;;
33206;SDS011;19565;46.602;11.534;2023-12-20T04:29:15;7.97;;;7.37;;
33206;SDS011;19565;46.602;11.534;2023-12-20T04:31:43;7.83;;;6.90;;
33206;SDS011;19565;46.602;11.534;2023-12-20T04:34:11;7.00;;;6.50;;
33206;SDS011;19565;46.602;11.534;2023-12-20T04:36:39;5.93;;;5.63;;
33206;SDS011;19565;46.602;11.534;2023-12-20T04:39:08;6.53;;;6.13;;
33206;SDS011;19565;46.602;11.534;2023-12-20T04:41:37;5.93;;;5.63;;
33206;SDS011;19565;46.602;11.534;2023-12-20T04:44:05;5.80;;;5.50;;
33206;SDS011;19565;46.602;11.534;2023-12-20T04:46:33;6.27;;;5.83;;
33206;SDS011;19565;46.602;11.534;2023-12-20T04:49:01;6.10;;;5.70;;
33206;SDS011;19565;46.602;11.534;2023-12-20T04:51:29;6.83;;;6.43;;
33206;SDS011;19565;46.602;11.534;2023-12-20T04:54:00;6.20;;;5.80;;
33206;SDS011;19565;46.602;11.534;2023-12-20T04:56:30;7.30;;;6.90;;
33206;SDS011;19565;46.602;11.534;2023-12-20T04:58:58;5.97;;;5.67;;
33206;SDS011;19565;46.602;11.534;2023-12-20T05:01:26;3.10;;;2.17;;
33206;SDS011;19565;46.602;11.534;2023-12-20T05:03:54;4.03;;;1.57;;
33206;SDS011;19565;46.602;11.534;2023-12-20T05:06:22;1.20;;;1.20;;
33206;SDS011;19565;46.602;11.534;2023-12-20T05:08:51;1.37;;;1.33;;
33206;SDS011;19565;46.602;11.534;2023-12-20T05:11:18;1.20;;;1.20;;
33206;SDS011;19565;46.602;11.534;2023-12-20T05:13:48;1.40;;;1.40;;
33206;SDS011;19565;46.602;11.534;2023-12-20T05:16:16;3.40;;;2.97;;
33206;SDS011;19565;46.602;11.534;2023-12-20T05:18:45;2.07;;;1.97;;
33206;SDS011;19565;46.602;11.534;2023-12-20T05:21:16;1.30;;;1.30;;
33206;SDS011;19565;46.602;11.534;2023-12-20T05:23:44;1.10;;;1.10;;
33206;SDS011;19565;46.602;11.534;2023-12-20T05:26:12;2.23;;;1.97;;
33206;SDS011;19565;46.602;11.534;2023-12-20T05:28:40;5.10;;;4.80;;
33206;SDS011;19565;46.602;11.534;2023-12-20T05:31:09;5.07;;;4.77;;
33206;SDS011;19565;46.602;11.534;2023-12-20T05:33:37;6.53;;;6.13;;
33206;SDS011;19565;46.602;11.534;2023-12-20T05:36:06;6.10;;;5.70;;
33206;SDS011;19565;46.602;11.534;2023-12-20T05:38:37;5.30;;;5.00;;
33206;SDS011;19565;46.602;11.534;2023-12-20T05:41:05;6.23;;;5.83;;
33206;SDS011;19565;46.602;11.534;2023-12-20T05:43:33;5.60;;;5.30;;
33206;SDS011;19565;46.602;11.534;2023-12-20T05:46:01;6.50;;;6.10;;
33206;SDS011;19565;46.602;11.534;2023-12-20T05:48:31;5.33;;;4.93;;
33206;SDS011;19565;46.602;11.534;2023-12-20T05:50:59;6.33;;;5.93;;
33206;SDS011;19565;46.602;11.534;2023-12-20T05:53:27;5.17;;;4.87;;
33206;SDS011;19565;46.602;11.534;2023-12-20T05:55:54;5.33;;;5.03;;
33206;SDS011;19565;46.602;11.534;2023-12-20T05:58:22;5.20;;;4.90;;
33206;SDS011;19565;46.602;11.534;2023-12-20T06:00:50;5.73;;;5.43;;
33206;SDS011;19565;46.602;11.534;2023-12-20T06:03:19;6.53;;;5.87;;
33206;SDS011;19565;46.602;11.534;2023-12-20T06:05:48;6.90;;;5.87;;
33206;SDS011;19565;46.602;11.534;2023-12-20T06:08:19;5.30;;;5.00;;
33206;SDS011;19565;46.602;11.534;2023-12-20T06:10:47;5.50;;;5.20;;
33206;SDS011;19565;46.602;11.534;2023-12-20T06:13:15;6.13;;;5.73;;
33206;SDS011;19565;46.602;11.534;2023-12-20T06:15:43;7.43;;;7.00;;
33206;SDS011;19565;46.602;11.534;2023-12-20T06:18:11;7.33;;;6.93;;
33206;SDS011;19565;46.602;11.534;2023-12-20T06:20:39;2.90;;;2.70;;
33206;SDS011;19565;46.602;11.534;2023-12-20T06:23:09;2.00;;;1.90;;
33206;SDS011;19565;46.602;11.534;2023-12-20T06:25:37;1.93;;;1.83;;
33206;SDS011;19565;46.602;11.534;2023-12-20T06:28:05;2.17;;;2.07;;
33206;SDS011;19565;46.602;11.534;2023-12-20T06:30:34;1.50;;;1.50;;
33206;SDS011;19565;46.602;11.534;2023-12-20T06:33:02;2.23;;;2.13;;
33206;SDS011;19565;46.602;11.534;2023-12-20T06:35:30;2.50;;;2.40;;
33206;SDS011;19565;46.602;11.534;2023-12-20T06:38:02;2.30;;;2.20;;
33206;SDS011;19565;46.602;11.534;2023-12-20T06:40:32;2.90;;;2.80;;
33206;SDS011;19565;46.602;11.534;2023-12-20T06:43:00;2.10;;;2.00;;
33206;SDS011;19565;46.602;11.534;2023-12-20T06:45:41;2.00;;;1.90;;
33206;SDS011;19565;46.602;11.534;2023-12-20T06:48:09;2.00;;;1.90;;
33206;SDS011;19565;46.602;11.534;2023-12-20T06:50:39;2.00;;;1.90;;
33206;SDS011;19565;46.602;11.534;2023-12-20T06:53:07;2.63;;;2.43;;
33206;SDS011;19565;46.602;11.534;2023-12-20T06:55:37;2.03;;;1.93;;
33206;SDS011;19565;46.602;11.534;2023-12-20T06:58:05;3.13;;;2.90;;
33206;SDS011;19565;46.602;11.534;2023-12-20T07:00:33;8.10;;;7.60;;
33206;SDS011;19565;46.602;11.534;2023-12-20T07:03:02;6.57;;;6.07;;
33206;SDS011;19565;46.602;11.534;2023-12-20T07:05:30;6.83;;;6.43;;
33206;SDS011;19565;46.602;11.534;2023-12-20T07:07:59;6.50;;;6.10;;
33206;SDS011;19565;46.602;11.534;2023-12-20T07:10:27;5.80;;;5.50;;
33206;SDS011;19565;46.602;11.534;2023-12-20T07:12:57;6.67;;;6.27;;
33206;SDS011;19565;46.602;11.534;2023-12-20T07:15:25;8.97;;;8.30;;
33206;SDS011;19565;46.602;11.534;2023-12-20T07:17:53;6.80;;;6.40;;
33206;SDS011;19565;46.602;11.534;2023-12-20T07:20:21;6.90;;;6.50;;
33206;SDS011;19565;46.602;11.534;2023-12-20T07:22:49;6.03;;;5.63;;
33206;SDS011;19565;46.602;11.534;2023-12-20T07:25:17;6.77;;;6.37;;
33206;SDS011;19565;46.602;11.534;2023-12-20T07:27:46;5.97;;;5.63;;
33206;SDS011;19565;46.602;11.534;2023-12-20T07:30:16;2.27;;;2.17;;
33206;SDS011;19565;46.602;11.534;2023-12-20T07:32:44;2.47;;;2.37;;
33206;SDS011;19565;46.602;11.534;2023-12-20T07:35:14;2.07;;;1.97;;
33206;SDS011;19565;46.602;11.534;2023-12-20T07:37:43;3.90;;;3.60;;
33206;SDS011;19565;46.602;11.534;2023-12-20T07:40:11;1.77;;;1.70;;
33206;SDS011;19565;46.602;11.534;2023-12-20T07:42:40;2.67;;;2.57;;
33206;SDS011;19565;46.602;11.534;2023-12-20T07:45:08;6.10;;;2.50;;
33206;SDS011;19565;46.602;11.534;2023-12-20T07:47:39;1.63;;;1.60;;
33206;SDS011;19565;46.602;11.534;2023-12-20T07:50:07;3.87;;;2.70;;
33206;SDS011;19565;46.602;11.534;2023-12-20T07:52:36;1.90;;;1.80;;
33206;SDS011;19565;46.602;11.534;2023-12-20T07:55:04;2.63;;;2.53;;
33206;SDS011;19565;46.602;11.534;2023-12-20T07:57:33;2.23;;;2.10;;
33206;SDS011;19565;46.602;11.534;2023-12-20T08:00:01;2.80;;;2.60;;
33206;SDS011;19565;46.602;11.534;2023-12-20T08:02:30;1.80;;;1.70;;
33206;SDS011;19565;46.602;11.534;2023-12-20T08:04:59;2.13;;;2.03;;
33206;SDS011;19565;46.602;11.534;2023-12-20T08:07:27;2.87;;;2.73;;
33206;SDS011;19565;46.602;11.534;2023-12-20T08:09:55;2.10;;;2.00;;
33206;SDS011;19565;46.602;11.534;2023-12-20T08:12:23;2.43;;;2.33;;
33206;SDS011;19565;46.602;11.534;2023-12-20T08:14:53;2.70;;;2.60;;
33206;SDS011;19565;46.602;11.534;2023-12-20T08:17:23;9.50;;;9.00;;
33206;SDS011;19565;46.602;11.534;2023-12-20T08:19:51;10.27;;;9.47;;
33206;SDS011;19565;46.602;11.534;2023-12-20T08:22:21;7.97;;;7.47;;
33206;SDS011;19565;46.602;11.534;2023-12-20T08:24:49;7.00;;;6.60;;
33206;SDS011;19565;46.602;11.534;2023-12-20T08:27:17;8.60;;;8.00;;
33206;SDS011;19565;46.602;11.534;2023-12-20T08:29:45;9.00;;;8.50;;
33206;SDS011;19565;46.602;11.534;2023-12-20T08:32:13;9.57;;;8.63;;
33206;SDS011;19565;46.602;11.534;2023-12-20T08:34:41;8.40;;;7.90;;
33206;SDS011;19565;46.602;11.534;2023-12-20T08:37:09;8.40;;;7.90;;
33206;SDS011;19565;46.602;11.534;2023-12-20T08:39:43;7.50;;;7.10;;
33206;SDS011;19565;46.602;11.534;2023-12-20T08:42:11;7.80;;;7.10;;
33206;SDS011;19565;46.602;11.534;2023-12-20T08:44:39;9.30;;;8.80;;
33206;SDS011;19565;46.602;11.534;2023-12-20T08:47:07;11.40;;;10.40;;
33206;SDS011;19565;46.602;11.534;2023-12-20T08:49:39;8.27;;;7.77;;
33206;SDS011;19565;46.602;11.534;2023-12-20T08:52:07;10.67;;;10.07;;
33206;SDS011;19565;46.602;11.534;2023-12-20T08:54:35;8.63;;;8.13;;
33206;SDS011;19565;46.602;11.534;2023-12-20T08:57:05;7.20;;;6.80;;
33206;SDS011;19565;46.602;11.534;2023-12-20T08:59:33;10.37;;;9.77;;
33206;SDS011;19565;46.602;11.534;2023-12-20T09:02:01;8.63;;;8.13;;
33206;SDS011;19565;46.602;11.534;2023-12-20T09:04:29;9.63;;;9.03;;
33206;SDS011;19565;46.602;11.534;2023-12-20T09:06:59;9.23;;;8.63;;
33206;SDS011;19565;46.602;11.534;2023-12-20T09:09:28;10.35;;;9.75;;
33206;SDS011;19565;46.602;11.534;2023-12-20T09:11:58;12.60;;;11.70;;
33206;SDS011;19565;46.602;11.534;2023-12-20T09:14:28;10.53;;;9.93;;
33206;SDS011;19565;46.602;11.534;2023-12-20T09:16:56;4.90;;;4.17;;
33206;SDS011;19565;46.602;11.534;2023-12-20T09:19:25;3.13;;;2.83;;
33206;SDS011;19565;46.602;11.534;2023-12-20T09:21:53;2.67;;;2.57;;
33206;SDS011;19565;46.602;11.534;2023-12-20T09:24:21;8.90;;;8.43;;
33206;SDS011;19565;46.602;11.534;2023-12-20T09:26:49;9.53;;;9.03;;
33206;SDS011;19565;46.602;11.534;2023-12-20T09:29:17;9.83;;;9.23;;
33206;SDS011;19565;46.602;11.534;2023-12-20T09:31:48;8.83;;;8.33;;
33206;SDS011;19565;46.602;11.534;2023-12-20T09:34:17;11.43;;;10.83;;
33206;SDS011;19565;46.602;11.534;2023-12-20T09:36:45;10.00;;;9.40;;
33206;SDS011;19565;46.602;11.534;2023-12-20T09:39:13;9.27;;;8.77;;
33206;SDS011;19565;46.602;11.534;2023-12-20T09:41:45;10.07;;;9.47;;
33206;SDS011;19565;46.602;11.534;2023-12-20T09:44:17;9.70;;;9.10;;
33206;SDS011;19565;46.602;11.534;2023-12-20T09:46:46;10.93;;;10.23;;
33206;SDS011;19565;46.602;11.534;2023-12-20T09:49:18;8.93;;;8.43;;
33206;SDS011;19565;46.602;11.534;2023-12-20T09:51:47;8.37;;;7.87;;
33206;SDS011;19565;46.602;11.534;2023-12-20T09:54:15;9.73;;;9.13;;
33206;SDS011;19565;46.602;11.534;2023-12-20T09:56:44;10.00;;;9.40;;
33206;SDS011;19565;46.602;11.534;2023-12-20T09:59:13;9.87;;;9.27;;
33206;SDS011;19565;46.602;11.534;2023-12-20T10:01:41;9.43;;;8.93;;
33206;SDS011;19565;46.602;11.534;2023-12-20T10:04:12;9.97;;;9.37;;
33206;SDS011;19565;46.602;11.534;2023-12-20T10:06:55;9.67;;;9.17;;
33206;SDS011;19565;46.602;11.534;2023-12-20T10:09:24;11.20;;;10.57;;
33206;SDS011;19565;46.602;11.534;2023-12-20T10:11:54;10.03;;;9.33;;
33206;SDS011;19565;46.602;11.534;2023-12-20T10:14:23;11.37;;;10.77;;
33206;SDS011;19565;46.602;11.534;2023-12-20T10:16:51;16.37;;;15.43;;
33206;SDS011;19565;46.602;11.534;2023-12-20T10:19:21;12.57;;;11.97;;
33206;SDS011;19565;46.602;11.534;2023-12-20T10:21:49;19.57;;;18.47;;
33206;SDS011;19565;46.602;11.534;2023-12-20T10:24:18;12.20;;;11.40;;
33206;SDS011;19565;46.602;11.534;2023-12-20T10:26:49;12.73;;;12.03;;
33206;SDS011;19565;46.602;11.534;2023-12-20T10:29:31;12.27;;;11.67;;
33206;SDS011;19565;46.602;11.534;2023-12-20T10:34:52;6.27;;;5.87;;
33206;SDS011;19565;46.602;11.534;2023-12-20T10:37:21;12.90;;;12.20;;
33206;SDS011;19565;46.602;11.534;2023-12-20T10:39:50;13.63;;;12.93;;
33206;SDS011;19565;46.602;11.534;2023-12-20T10:42:23;14.37;;;13.67;;
33206;SDS011;19565;46.602;11.534;2023-12-20T10:44:53;15.40;;;14.67;;
33206;SDS011;19565;46.602;11.534;2023-12-20T10:47:22;15.30;;;14.60;;
33206;SDS011;19565;46.602;11.534;2023-12-20T10:49:53;19.70;;;18.80;;
33206;SDS011;19565;46.602;11.534;2023-12-20T10:52:23;6.57;;;6.07;;
33206;SDS011;19565;46.602;11.534;2023-12-20T10:54:54;17.27;;;16.27;;
33206;SDS011;19565;46.602;11.534;2023-12-20T10:57:22;17.40;;;16.57;;
33206;SDS011;19565;46.602;11.534;2023-12-20T10:59:55;18.40;;;17.40;;
33206;SDS011;19565;46.602;11.534;2023-12-20T11:02:26;17.13;;;16.33;;
33206;SDS011;19565;46.602;11.534;2023-12-20T11:04:59;18.17;;;17.37;;
33206;SDS011;19565;46.602;11.534;2023-12-20T11:07:47;18.47;;;17.60;;
33206;SDS011;19565;46.602;11.534;2023-12-20T11:10:20;18.50;;;17.67;;
33206;SDS011;19565;46.602;11.534;2023-12-20T11:12:52;19.20;;;18.30;;
33206;SDS011;19565;46.602;11.534;2023-12-20T11:15:23;19.37;;;18.47;;
33206;SDS011;19565;46.602;11.534;2023-12-20T11:17:56;22.20;;;21.10;;
33206;SDS011;19565;46.602;11.534;2023-12-20T11:20:34;20.80;;;19.80;;
33206;SDS011;19565;46.602;11.534;2023-12-20T11:23:04;21.93;;;20.90;;
33206;SDS011;19565;46.602;11.534;2023-12-20T11:25:46;22.33;;;21.20;;
33206;SDS011;19565;46.602;11.534;2023-12-20T11:28:15;20.30;;;19.40;;
33206;SDS011;19565;46.602;11.534;2023-12-20T11:30:48;21.03;;;19.87;;
33206;SDS011;19565;46.602;11.534;2023-12-20T11:33:21;20.33;;;19.43;;
33206;SDS011;19565;46.602;11.534;2023-12-20T11:35:56;20.77;;;19.87;;
33206;SDS011;19565;46.602;11.534;2023-12-20T11:38:26;21.43;;;20.47;;
33206;SDS011;19565;46.602;11.534;2023-12-20T11:40:54;21.17;;;20.17;;
33206;SDS011;19565;46.602;11.534;2023-12-20T11:43:29;20.67;;;19.77;;
33206;SDS011;19565;46.602;11.534;2023-12-20T11:46:04;21.73;;;20.73;;
33206;SDS011;19565;46.602;11.534;2023-12-20T11:48:34;22.33;;;21.33;;
33206;SDS011;19565;46.602;11.534;2023-12-20T11:51:08;22.10;;;21.10;;
33206;SDS011;19565;46.602;11.534;2023-12-20T11:53:36;22.27;;;21.27;;
33206;SDS011;19565;46.602;11.534;2023-12-20T11:56:05;22.33;;;21.33;;
33206;SDS011;19565;46.602;11.534;2023-12-20T11:58:36;27.00;;;25.60;;
33206;SDS011;19565;46.602;11.534;2023-12-20T12:01:04;26.70;;;25.20;;
33206;SDS011;19565;46.602;11.534;2023-12-20T12:03:34;25.10;;;24.00;;
33206;SDS011;19565;46.602;11.534;2023-12-20T12:06:02;24.90;;;23.80;;
33206;SDS011;19565;46.602;11.534;2023-12-20T12:08:33;25.63;;;24.43;;
33206;SDS011;19565;46.602;11.534;2023-12-20T12:11:01;27.63;;;26.43;;
33206;SDS011;19565;46.602;11.534;2023-12-20T12:13:30;24.17;;;23.07;;
33206;SDS011;19565;46.602;11.534;2023-12-20T12:15:58;23.73;;;22.73;;
33206;SDS011;19565;46.602;11.534;2023-12-20T12:18:26;25.27;;;24.17;;
33206;SDS011;19565;46.602;11.534;2023-12-20T12:20:59;12.80;;;12.00;;
33206;SDS011;19565;46.602;11.534;2023-12-20T12:23:37;23.30;;;22.30;;
33206;SDS011;19565;46.602;11.534;2023-12-20T12:26:05;22.40;;;21.40;;
33206;SDS011;19565;46.602;11.534;2023-12-20T12:28:35;22.03;;;21.03;;
33206;SDS011;19565;46.602;11.534;2023-12-20T12:31:03;21.37;;;20.40;;
33206;SDS011;19565;46.602;11.534;2023-12-20T12:33:31;22.03;;;21.03;;
33206;SDS011;19565;46.602;11.534;2023-12-20T12:36:10;22.90;;;21.90;;
33206;SDS011;19565;46.602;11.534;2023-12-20T12:38:48;21.73;;;20.73;;
33206;SDS011;19565;46.602;11.534;2023-12-20T12:41:16;22.97;;;21.97;;
33206;SDS011;19565;46.602;11.534;2023-12-20T12:43:44;22.03;;;20.93;;
33206;SDS011;19565;46.602;11.534;2023-12-20T12:46:12;22.23;;;21.03;;
33206;SDS011;19565;46.602;11.534;2023-12-20T12:48:40;22.20;;;21.20;;
33206;SDS011;19565;46.602;11.534;2023-12-20T12:51:12;25.93;;;24.83;;
33206;SDS011;19565;46.602;11.534;2023-12-20T12:53:40;26.10;;;25.00;;
33206;SDS011;19565;46.602;11.534;2023-12-20T12:56:10;27.27;;;25.90;;
33206;SDS011;19565;46.602;11.534;2023-12-20T12:58:40;23.20;;;22.10;;
33206;SDS011;19565;46.602;11.534;2023-12-20T13:01:08;22.93;;;21.93;;
33206;SDS011;19565;46.602;11.534;2023-12-20T13:03:36;25.10;;;24.00;;
33206;SDS011;19565;46.602;11.534;2023-12-20T13:06:04;26.70;;;25.40;;
33206;SDS011;19565;46.602;11.534;2023-12-20T13:08:35;24.83;;;23.63;;
33206;SDS011;19565;46.602;11.534;2023-12-20T13:11:03;24.10;;;22.90;;
33206;SDS011;19565;46.602;11.534;2023-12-20T13:13:32;25.80;;;24.60;;
33206;SDS011;19565;46.602;11.534;2023-12-20T13:16:00;24.13;;;23.03;;
33206;SDS011;19565;46.602;11.534;2023-12-20T13:18:28;23.73;;;22.63;;
33206;SDS011;19565;46.602;11.534;2023-12-20T13:20:57;23.30;;;22.20;;
33206;SDS011;19565;46.602;11.534;2023-12-20T13:23:25;22.97;;;21.97;;
33206;SDS011;19565;46.602;11.534;2023-12-20T13:25:53;24.20;;;23.10;;
33206;SDS011;19565;46.602;11.534;2023-12-20T13:28:21;25.07;;;23.77;;
33206;SDS011;19565;46.602;11.534;2023-12-20T13:30:50;23.80;;;22.80;;
33206;SDS011;19565;46.602;11.534;2023-12-20T13:33:18;23.17;;;22.17;;
33206;SDS011;19565;46.602;11.534;2023-12-20T13:35:46;24.13;;;23.07;;
33206;SDS011;19565;46.602;11.534;2023-12-20T13:38:14;22.63;;;21.63;;
33206;SDS011;19565;46.602;11.534;2023-12-20T13:40:42;22.23;;;21.23;;
33206;SDS011;19565;46.602;11.534;2023-12-20T13:43:10;23.80;;;22.70;;
33206;SDS011;19565;46.602;11.534;2023-12-20T13:45:39;23.70;;;22.70;;
33206;SDS011;19565;46.602;11.534;2023-12-20T13:48:09;21.67;;;20.67;;
33206;SDS011;19565;46.602;11.534;2023-12-20T13:50:37;21.77;;;20.77;;
33206;SDS011;19565;46.602;11.534;2023-12-20T13:53:05;23.33;;;22.23;;
33206;SDS011;19565;46.602;11.534;2023-12-20T13:55:33;21.67;;;20.47;;
33206;SDS011;19565;46.602;11.534;2023-12-20T13:58:01;23.17;;;22.07;;
33206;SDS011;19565;46.602;11.534;2023-12-20T14:00:30;21.50;;;20.50;;
33206;SDS011;19565;46.602;11.534;2023-12-20T14:02:58;22.63;;;21.63;;
33206;SDS011;19565;46.602;11.534;2023-12-20T14:05:27;24.17;;;23.07;;
33206;SDS011;19565;46.602;11.534;2023-12-20T14:07:56;23.17;;;22.17;;
33206;SDS011;19565;46.602;11.534;2023-12-20T14:10:24;21.80;;;20.70;;
33206;SDS011;19565;46.602;11.534;2023-12-20T14:12:53;24.00;;;22.97;;
33206;SDS011;19565;46.602;11.534;2023-12-20T14:15:22;25.63;;;24.27;;
33206;SDS011;19565;46.602;11.534;2023-12-20T14:17:52;22.30;;;21.30;;
33206;SDS011;19565;46.602;11.534;2023-12-20T14:20:21;23.70;;;22.70;;
33206;SDS011;19565;46.602;11.534;2023-12-20T14:22:50;24.47;;;23.37;;
33206;SDS011;19565;46.602;11.534;2023-12-20T14:25:18;25.83;;;24.20;;
33206;SDS011;19565;46.602;11.534;2023-12-20T14:27:46;24.27;;;23.17;;
33206;SDS011;19565;46.602;11.534;2023-12-20T14:30:15;23.23;;;22.13;;
33206;SDS011;19565;46.602;11.534;2023-12-20T14:32:43;22.80;;;21.80;;
33206;SDS011;19565;46.602;11.534;2023-12-20T14:35:12;23.33;;;22.33;;
33206;SDS011;19565;46.602;11.534;2023-12-20T14:37:41;23.20;;;22.20;;
33206;SDS011;19565;46.602;11.534;2023-12-20T14:40:11;86.20;;;81.73;;